Wetterdaten: Woche 24.04.17 - 30.04.17 (KW17)
Datum Zeit Temp. A. Feuchte A. Luftdruck Regen Wind Richtung Taupunkt Windchill Windben
24.04.2017 00:00 6,1 C 58 % 1022,5 hPa 0,0 l/m 0,6 km/h N -1,6 C 6,1 C 7,6 km/h
24.04.2017 01:00 5,6 C 60 % 1022,5 hPa 0,0 l/m 0,5 km/h N -1,6 C 5,6 C 5,6 km/h
24.04.2017 02:00 5,0 C 62 % 1022,2 hPa 0,0 l/m 0,2 km/h N -1,6 C 5,0 C 4,8 km/h
24.04.2017 03:00 4,6 C 64 % 1022,0 hPa 0,0 l/m 0,1 km/h N -1,7 C 4,6 C 2,0 km/h
24.04.2017 04:00 2,9 C 68 % 1022,0 hPa 0,0 l/m 0,0 km/h N -2,5 C 2,9 C 0,0 km/h
24.04.2017 05:00 1,9 C 74 % 1021,8 hPa 0,0 l/m 0,0 km/h N -2,3 C 1,9 C 0,0 km/h
24.04.2017 06:00 1,6 C 76 % 1021,7 hPa 0,0 l/m 0,0 km/h N -2,1 C 1,6 C 0,0 km/h
24.04.2017 07:00 2,8 C 77 % 1021,6 hPa 0,0 l/m 0,0 km/h N -0,8 C 2,8 C 1,2 km/h
24.04.2017 08:00 6,2 C 65 % 1021,5 hPa 0,0 l/m 0,3 km/h N -0,0 C 6,2 C 3,2 km/h
24.04.2017 09:00 9,9 C 52 % 1021,0 hPa 0,0 l/m 0,3 km/h N 0,6 C 9,9 C 4,0 km/h
24.04.2017 10:00 12,4 C 46 % 1020,4 hPa 0,0 l/m 0,5 km/h N 1,0 C 12,4 C 7,6 km/h
24.04.2017 11:00 13,3 C 47 % 1019,8 hPa 0,0 l/m 1,9 km/h N 2,1 C 13,3 C 12,1 km/h
24.04.2017 12:00 14,3 C 46 % 1019,0 hPa 0,0 l/m 1,7 km/h N 2,9 C 14,3 C 8,9 km/h
24.04.2017 13:00 15,3 C 47 % 1017,8 hPa 0,0 l/m 1,9 km/h N 3,9 C 15,3 C 9,3 km/h
24.04.2017 14:00 15,6 C 48 % 1016,7 hPa 0,0 l/m 1,1 km/h N 4,7 C 15,6 C 8,4 km/h
24.04.2017 15:00 15,7 C 46 % 1015,5 hPa 0,0 l/m 1,4 km/h N 4,0 C 15,7 C 8,8 km/h
24.04.2017 16:00 15,5 C 45 % 1014,7 hPa 0,0 l/m 0,7 km/h N 3,7 C 15,5 C 7,7 km/h
24.04.2017 17:00 15,5 C 45 % 1013,8 hPa 0,0 l/m 0,6 km/h N 3,6 C 15,5 C 5,6 km/h
24.04.2017 18:00 15,6 C 46 % 1013,0 hPa 0,0 l/m 0,1 km/h N 4,1 C 15,6 C 3,6 km/h
24.04.2017 19:00 15,1 C 50 % 1012,3 hPa 0,0 l/m 0,1 km/h N 4,8 C 15,1 C 2,4 km/h
24.04.2017 20:00 13,2 C 57 % 1012,0 hPa 0,0 l/m 0,0 km/h N 4,8 C 13,2 C 0,8 km/h
24.04.2017 21:00 10,4 C 66 % 1011,9 hPa 0,0 l/m 0,0 km/h N 4,3 C 10,4 C 0,0 km/h
24.04.2017 22:00 8,1 C 74 % 1011,5 hPa 0,0 l/m 0,0 km/h N 3,6 C 8,1 C 0,4 km/h
24.04.2017 23:00 6,9 C 79 % 1011,0 hPa 0,0 l/m 0,6 km/h N 3,5 C 6,9 C 3,2 km/h
25.04.2017 00:00 7,3 C 79 % 1010,3 hPa 0,0 l/m 0,3 km/h N 3,8 C 7,3 C 3,2 km/h
25.04.2017 01:00 7,5 C 76 % 1009,9 hPa 0,0 l/m 0,2 km/h N 3,5 C 7,5 C 2,4 km/h
25.04.2017 02:00 5,7 C 78 % 1009,5 hPa 0,0 l/m 0,0 km/h N 2,1 C 5,7 C 0,4 km/h
25.04.2017 03:00 4,4 C 81 % 1009,0 hPa 0,0 l/m 0,0 km/h N 1,4 C 4,4 C 0,0 km/h
25.04.2017 04:00 3,7 C 83 % 1008,8 hPa 0,0 l/m 0,0 km/h N 1,0 C 3,7 C 0,0 km/h
25.04.2017 05:00 3,2 C 83 % 1008,6 hPa 0,0 l/m 0,0 km/h N 0,6 C 3,2 C 0,0 km/h
25.04.2017 06:00 2,6 C 83 % 1008,6 hPa 0,0 l/m 0,0 km/h N 0,1 C 2,6 C 0,0 km/h
25.04.2017 07:00 4,1 C 83 % 1008,4 hPa 0,0 l/m 0,0 km/h N 1,4 C 4,1 C 0,0 km/h
25.04.2017 08:00 7,1 C 83 % 1007,9 hPa 0,0 l/m 0,0 km/h N 4,3 C 7,1 C 2,4 km/h
25.04.2017 09:00 11,1 C 81 % 1007,5 hPa 0,0 l/m 0,1 km/h N 7,9 C 11,1 C 4,0 km/h
25.04.2017 10:00 16,2 C 68 % 1007,1 hPa 0,0 l/m 0,4 km/h N 10,3 C 16,2 C 5,6 km/h
25.04.2017 11:00 19,5 C 58 % 1006,5 hPa 0,0 l/m 0,6 km/h N 10,9 C 19,5 C 6,8 km/h
25.04.2017 12:00 20,0 C 55 % 1006,4 hPa 0,0 l/m 1,6 km/h N 10,7 C 20,0 C 10,1 km/h
25.04.2017 13:00 20,9 C 49 % 1006,0 hPa 0,0 l/m 1,4 km/h N 9,9 C 20,9 C 9,3 km/h
25.04.2017 14:00 21,5 C 47 % 1005,6 hPa 0,0 l/m 2,7 km/h N 9,7 C 21,5 C 12,9 km/h
25.04.2017 15:00 20,6 C 49 % 1005,4 hPa 0,0 l/m 2,6 km/h N 9,6 C 20,6 C 12,5 km/h
25.04.2017 16:00 20,5 C 48 % 1004,7 hPa 0,0 l/m 1,5 km/h N 9,0 C 20,5 C 8,4 km/h
25.04.2017 17:00 20,7 C 48 % 1004,2 hPa 0,0 l/m 0,5 km/h N 9,2 C 20,7 C 6,0 km/h
25.04.2017 18:00 20,3 C 52 % 1003,8 hPa 0,0 l/m 0,2 km/h N 10,0 C 20,3 C 4,4 km/h
25.04.2017 19:00 18,7 C 55 % 1003,5 hPa 0,0 l/m 0,1 km/h N 9,6 C 18,7 C 2,8 km/h
25.04.2017 20:00 16,4 C 60 % 1003,9 hPa 0,0 l/m 0,0 km/h N 8,6 C 16,4 C 0,0 km/h
25.04.2017 21:00 13,9 C 68 % 1005,0 hPa 0,0 l/m 1,6 km/h N 8,1 C 13,9 C 10,1 km/h
25.04.2017 22:00 13,5 C 67 % 1005,8 hPa 0,0 l/m 8,0 km/h N 7,4 C 12,5 C 20,9 km/h
25.04.2017 23:00 12,8 C 70 % 1006,3 hPa 0,0 l/m 1,3 km/h N 7,4 C 12,8 C 7,7 km/h
26.04.2017 00:00 12,3 C 73 % 1006,7 hPa 0,0 l/m 1,6 km/h N 7,6 C 12,3 C 7,2 km/h
26.04.2017 01:00 12,0 C 73 % 1006,5 hPa 0,0 l/m 0,1 km/h N 7,3 C 12,0 C 2,4 km/h
26.04.2017 02:00 10,9 C 74 % 1006,1 hPa 0,0 l/m 0,0 km/h N 6,4 C 10,9 C 0,0 km/h
26.04.2017 03:00 9,5 C 77 % 1005,6 hPa 0,0 l/m 0,0 km/h N 5,7 C 9,5 C 0,0 km/h
26.04.2017 04:00 8,6 C 80 % 1005,3 hPa 0,0 l/m 0,0 km/h N 5,4 C 8,6 C 0,0 km/h
26.04.2017 05:00 7,8 C 82 % 1005,0 hPa 0,0 l/m 0,0 km/h N 4,9 C 7,8 C 0,0 km/h
26.04.2017 06:00 7,4 C 82 % 1005,3 hPa 0,0 l/m 0,0 km/h N 4,5 C 7,4 C 0,0 km/h
26.04.2017 07:00 8,0 C 82 % 1005,4 hPa 0,0 l/m 0,0 km/h N 5,1 C 8,0 C 1,2 km/h
26.04.2017 08:00 9,8 C 82 % 1005,8 hPa 0,0 l/m 0,4 km/h N 6,9 C 9,8 C 5,6 km/h
26.04.2017 09:00 11,6 C 79 % 1005,7 hPa 0,0 l/m 0,8 km/h N 8,0 C 11,6 C 6,4 km/h
26.04.2017 10:00 13,4 C 74 % 1005,4 hPa 0,0 l/m 1,0 km/h N 8,8 C 13,4 C 6,8 km/h
26.04.2017 11:00 14,7 C 71 % 1005,5 hPa 0,0 l/m 0,2 km/h N 9,4 C 14,7 C 3,2 km/h
26.04.2017 12:00 14,7 C 71 % 1005,5 hPa 0,0 l/m 0,7 km/h N 9,6 C 14,7 C 7,2 km/h
26.04.2017 13:00 15,1 C 70 % 1005,5 hPa 0,0 l/m 1,5 km/h N 9,6 C 15,1 C 8,9 km/h
26.04.2017 14:00 16,2 C 68 % 1005,7 hPa 0,0 l/m 0,5 km/h N 10,2 C 16,2 C 6,4 km/h
26.04.2017 15:00 16,8 C 68 % 1005,7 hPa 0,0 l/m 0,3 km/h N 10,8 C 16,8 C 7,7 km/h
26.04.2017 16:00 16,2 C 65 % 1006,2 hPa 0,0 l/m 5,9 km/h N 9,5 C 16,0 C 16,1 km/h
26.04.2017 17:00 13,8 C 69 % 1007,2 hPa 0,0 l/m 9,8 km/h N 8,2 C 11,9 C 22,1 km/h
26.04.2017 18:00 11,1 C 75 % 1008,1 hPa 0,0 l/m 9,7 km/h N 6,8 C 9,1 C 25,8 km/h
26.04.2017 19:00 9,7 C 77 % 1009,0 hPa 0,0 l/m 6,9 km/h N 5,8 C 9,1 C 20,1 km/h
26.04.2017 20:00 8,9 C 77 % 1009,8 hPa 0,0 l/m 5,2 km/h N 5,1 C 8,8 C 15,3 km/h
26.04.2017 21:00 8,6 C 78 % 1010,4 hPa 0,0 l/m 5,0 km/h N 5,0 C 8,6 C 15,7 km/h
26.04.2017 22:00 8,3 C 79 % 1010,7 hPa 0,0 l/m 4,3 km/h N 4,8 C 8,3 C 12,5 km/h
26.04.2017 23:00 8,0 C 79 % 1010,8 hPa 0,0 l/m 3,5 km/h N 4,6 C 8,0 C 13,3 km/h
27.04.2017 00:00 7,8 C 78 % 1010,6 hPa 0,0 l/m 3,4 km/h N 4,2 C 7,8 C 13,7 km/h
27.04.2017 01:00 7,6 C 79 % 1010,2 hPa 0,0 l/m 4,7 km/h N 4,2 C 7,6 C 16,9 km/h
27.04.2017 02:00 7,4 C 80 % 1010,0 hPa 0,0 l/m 3,2 km/h N 4,1 C 7,4 C 12,1 km/h
27.04.2017 03:00 7,1 C 81 % 1009,9 hPa 0,0 l/m 3,1 km/h N 3,9 C 7,1 C 12,1 km/h
27.04.2017 04:00 6,5 C 82 % 1009,7 hPa 0,0 l/m 3,0 km/h N 3,7 C 6,5 C 12,9 km/h
27.04.2017 05:00 6,0 C 83 % 1010,2 hPa 0,3 l/m 3,8 km/h N 3,4 C 6,0 C 14,1 km/h
27.04.2017 06:00 5,7 C 83 % 1010,6 hPa 0,3 l/m 3,9 km/h N 3,0 C 5,7 C 12,9 km/h
27.04.2017 07:00 5,4 C 83 % 1011,1 hPa 0,3 l/m 5,1 km/h N 2,7 C 5,4 C 14,5 km/h
27.04.2017 08:00 5,6 C 83 % 1011,5 hPa 0,0 l/m 4,4 km/h N 2,9 C 5,6 C 16,5 km/h
27.04.2017 09:00 5,8 C 83 % 1012,0 hPa 0,0 l/m 6,2 km/h N 3,2 C 5,4 C 20,5 km/h
27.04.2017 10:00 6,1 C 83 % 1012,7 hPa 0,0 l/m 7,7 km/h N 3,3 C 4,9 C 21,7 km/h
27.04.2017 11:00 6,5 C 82 % 1013,3 hPa 0,0 l/m 7,4 km/h N 3,6 C 5,6 C 22,1 km/h
27.04.2017 12:00 6,8 C 81 % 1013,3 hPa 0,0 l/m 8,2 km/h N 3,8 C 5,4 C 20,9 km/h
27.04.2017 13:00 7,2 C 80 % 1013,3 hPa 0,0 l/m 5,6 km/h N 4,0 C 6,8 C 17,3 km/h
27.04.2017 14:00 7,1 C 79 % 1013,7 hPa 0,0 l/m 5,9 km/h N 3,8 C 6,9 C 16,1 km/h
27.04.2017 15:00 7,3 C 79 % 1013,6 hPa 0,0 l/m 4,6 km/h N 4,0 C 7,3 C 14,1 km/h
27.04.2017 16:00 7,6 C 79 % 1013,6 hPa 0,0 l/m 4,4 km/h N 4,2 C 7,6 C 15,3 km/h
27.04.2017 17:00 7,5 C 80 % 1013,5 hPa 0,3 l/m 4,5 km/h N 4,3 C 7,5 C 14,1 km/h
27.04.2017 18:00 7,0 C 82 % 1013,2 hPa 0,0 l/m 3,9 km/h N 4,2 C 7,0 C 13,3 km/h
27.04.2017 19:00 6,8 C 83 % 1012,9 hPa 0,0 l/m 2,2 km/h N 4,1 C 6,8 C 10,5 km/h
27.04.2017 20:00 6,8 C 83 % 1012,9 hPa 0,0 l/m 1,7 km/h N 4,1 C 6,8 C 7,6 km/h
27.04.2017 21:00 6,8 C 83 % 1012,9 hPa 0,5 l/m 1,9 km/h N 4,1 C 6,8 C 8,0 km/h
27.04.2017 22:00 6,5 C 83 % 1012,3 hPa 0,0 l/m 0,9 km/h N 3,9 C 6,5 C 8,0 km/h
27.04.2017 23:00 6,3 C 83 % 1011,7 hPa 0,0 l/m 1,4 km/h N 3,6 C 6,3 C 9,6 km/h
28.04.2017 00:00 6,0 C 83 % 1011,4 hPa 0,3 l/m 1,1 km/h N 3,4 C 6,0 C 7,2 km/h
28.04.2017 01:00 5,7 C 83 % 1010,3 hPa 0,0 l/m 1,0 km/h N 3,0 C 5,7 C 7,6 km/h
28.04.2017 02:00 5,4 C 83 % 1009,3 hPa 0,3 l/m 0,9 km/h N 2,8 C 5,4 C 6,0 km/h
28.04.2017 03:00 5,3 C 83 % 1008,8 hPa 0,8 l/m 0,4 km/h N 2,7 C 5,3 C 4,0 km/h
28.04.2017 04:00 5,2 C 83 % 1008,7 hPa 1,8 l/m 2,5 km/h N 2,6 C 5,2 C 8,9 km/h
28.04.2017 05:00 4,9 C 83 % 1008,0 hPa 0,0 l/m 3,7 km/h N 2,2 C 4,9 C 13,3 km/h
28.04.2017 06:00 4,7 C 83 % 1008,3 hPa 0,0 l/m 4,9 km/h N 2,0 C 4,4 C 14,1 km/h
28.04.2017 07:00 4,3 C 83 % 1008,2 hPa 0,0 l/m 5,2 km/h N 1,6 C 4,3 C 15,7 km/h
28.04.2017 08:00 4,3 C 83 % 1008,6 hPa 0,0 l/m 5,8 km/h N 1,6 C 4,1 C 18,9 km/h
28.04.2017 09:00 4,4 C 83 % 1008,5 hPa 0,0 l/m 4,1 km/h N 1,7 C 4,4 C 15,3 km/h
28.04.2017 10:00 4,8 C 83 % 1008,8 hPa 0,0 l/m 4,3 km/h N 2,2 C 4,8 C 16,1 km/h
28.04.2017 12:00 6,3 C 83 % 1008,4 hPa 0,3 l/m 4,8 km/h N 3,6 C 6,3 C 22,5 km/h
28.04.2017 13:00 6,0 C 83 % 1008,2 hPa 0,0 l/m 6,4 km/h N 3,3 C 5,3 C 23,3 km/h
28.04.2017 14:00 5,8 C 83 % 1008,6 hPa 1,0 l/m 5,6 km/h N 3,1 C 5,8 C 17,7 km/h
28.04.2017 15:00 6,0 C 83 % 1008,8 hPa 0,0 l/m 6,4 km/h N 3,3 C 5,3 C 17,7 km/h
28.04.2017 16:00 6,1 C 83 % 1008,8 hPa 0,0 l/m 4,8 km/h N 3,4 C 6,1 C 16,1 km/h
28.04.2017 17:00 5,9 C 82 % 1009,6 hPa 0,0 l/m 6,4 km/h N 3,1 C 6,0 C 20,1 km/h
28.04.2017 18:00 5,8 C 82 % 1010,0 hPa 0,0 l/m 8,1 km/h N 2,8 C 4,4 C 24,9 km/h
28.04.2017 19:00 5,8 C 82 % 1010,4 hPa 0,0 l/m 8,0 km/h N 2,9 C 4,4 C 25,7 km/h
28.04.2017 20:00 5,5 C 80 % 1011,3 hPa 0,0 l/m 7,2 km/h N 2,3 C 4,8 C 24,1 km/h
28.04.2017 21:00 5,4 C 80 % 1012,0 hPa 0,0 l/m 7,2 km/h N 2,2 C 4,7 C 24,9 km/h
28.04.2017 22:00 5,3 C 80 % 1013,0 hPa 0,0 l/m 8,9 km/h N 2,0 C 3,3 C 26,5 km/h
28.04.2017 23:00 5,3 C 80 % 1013,6 hPa 0,0 l/m 8,1 km/h N 2,1 C 3,9 C 25,0 km/h
29.04.2017 00:00 5,1 C 79 % 1014,6 hPa 0,0 l/m 9,7 km/h N 1,8 C 2,4 C 29,8 km/h
29.04.2017 01:00 5,3 C 80 % 1014,7 hPa 0,0 l/m 12,1 km/h N 2,0 C 1,0 C 33,8 km/h
29.04.2017 02:00 5,4 C 80 % 1014,8 hPa 0,0 l/m 12,9 km/h N 2,1 C 0,7 C 33,0 km/h
29.04.2017 03:00 5,1 C 80 % 1015,3 hPa 0,0 l/m 9,7 km/h N 2,0 C 2,5 C 26,5 km/h
29.04.2017 04:00 4,9 C 80 % 1015,8 hPa 0,0 l/m 8,9 km/h N 1,7 C 2,8 C 26,5 km/h
29.04.2017 05:00 4,8 C 79 % 1016,5 hPa 0,0 l/m 8,3 km/h N 1,6 C 3,2 C 25,2 km/h
29.04.2017 06:00 4,9 C 80 % 1017,2 hPa 0,0 l/m 7,0 km/h N 1,7 C 4,4 C 20,5 km/h
29.04.2017 07:00 5,9 C 78 % 1017,7 hPa 0,0 l/m 7,5 km/h N 2,4 C 4,7 C 22,9 km/h
29.04.2017 08:00 7,4 C 74 % 1018,0 hPa 0,0 l/m 7,2 km/h N 3,0 C 6,7 C 23,7 km/h
29.04.2017 09:00 8,9 C 68 % 1018,1 hPa 0,0 l/m 7,5 km/h N 3,3 C 8,1 C 22,5 km/h
29.04.2017 10:00 10,1 C 64 % 1018,1 hPa 0,0 l/m 8,5 km/h N 3,6 C 8,6 C 23,3 km/h
29.04.2017 11:00 11,1 C 61 % 1018,0 hPa 0,0 l/m 7,5 km/h N 3,7 C 10,3 C 20,5 km/h
29.04.2017 12:00 11,9 C 56 % 1017,5 hPa 0,0 l/m 7,8 km/h N 3,3 C 11,0 C 22,1 km/h
29.04.2017 13:00 12,5 C 53 % 1017,0 hPa 0,0 l/m 6,8 km/h N 3,1 C 12,1 C 21,7 km/h
29.04.2017 14:00 13,0 C 52 % 1016,8 hPa 0,0 l/m 7,4 km/h N 3,2 C 12,3 C 20,9 km/h
29.04.2017 15:00 12,8 C 50 % 1016,6 hPa 0,0 l/m 6,3 km/h N 2,7 C 12,6 C 18,9 km/h
29.04.2017 16:00 13,2 C 48 % 1016,7 hPa 0,0 l/m 8,1 km/h N 2,5 C 12,2 C 21,3 km/h
29.04.2017 17:00 12,4 C 48 % 1016,9 hPa 0,0 l/m 6,7 km/h N 1,8 C 11,7 C 18,5 km/h
29.04.2017 18:00 12,4 C 50 % 1016,8 hPa 0,0 l/m 4,2 km/h N 2,2 C 12,4 C 12,9 km/h
29.04.2017 19:00 11,4 C 54 % 1017,0 hPa 0,0 l/m 1,6 km/h N 2,5 C 11,4 C 9,7 km/h
29.04.2017 20:00 10,1 C 60 % 1017,5 hPa 0,0 l/m 0,2 km/h N 2,6 C 10,1 C 4,4 km/h
29.04.2017 21:00 8,3 C 65 % 1017,8 hPa 0,0 l/m 0,0 km/h N 2,0 C 8,3 C 0,8 km/h
29.04.2017 22:00 6,3 C 71 % 1017,9 hPa 0,0 l/m 0,0 km/h N 1,5 C 6,3 C 0,0 km/h
29.04.2017 23:00 5,2 C 77 % 1018,0 hPa 0,0 l/m 0,0 km/h N 1,5 C 5,2 C 0,0 km/h
30.04.2017 00:00 4,6 C 79 % 1018,2 hPa 0,0 l/m 0,0 km/h N 1,1 C 4,6 C 0,0 km/h
30.04.2017 01:00 4,2 C 80 % 1018,1 hPa 0,0 l/m 0,0 km/h N 1,1 C 4,2 C 0,0 km/h
30.04.2017 02:00 4,2 C 81 % 1018,1 hPa 0,0 l/m 0,0 km/h N 1,2 C 4,2 C 0,8 km/h
30.04.2017 03:00 3,9 C 80 % 1018,3 hPa 0,0 l/m 0,0 km/h N 0,7 C 3,9 C 0,4 km/h
30.04.2017 04:00 3,0 C 81 % 1018,5 hPa 0,0 l/m 0,0 km/h N -0,0 C 3,0 C 2,0 km/h
30.04.2017 05:00 2,5 C 81 % 1018,6 hPa 0,0 l/m 0,0 km/h N -0,4 C 2,5 C 2,0 km/h
30.04.2017 06:00 1,7 C 82 % 1019,0 hPa 0,0 l/m 0,0 km/h N -1,0 C 1,7 C 0,0 km/h
30.04.2017 07:00 2,8 C 83 % 1019,3 hPa 0,0 l/m 0,0 km/h N 0,2 C 2,8 C 0,4 km/h
30.04.2017 08:00 6,3 C 80 % 1019,3 hPa 0,0 l/m 0,2 km/h N 3,1 C 6,3 C 2,8 km/h
30.04.2017 09:00 10,5 C 71 % 1019,2 hPa 0,0 l/m 0,2 km/h N 5,4 C 10,5 C 3,6 km/h
30.04.2017 10:00 13,3 C 64 % 1018,9 hPa 0,0 l/m 0,2 km/h N 6,7 C 13,3 C 3,2 km/h
30.04.2017 11:00 15,1 C 59 % 1018,4 hPa 0,0 l/m 0,6 km/h N 7,2 C 15,1 C 6,0 km/h
30.04.2017 12:00 16,6 C 51 % 1018,0 hPa 0,0 l/m 1,8 km/h N 6,3 C 16,6 C 10,1 km/h
30.04.2017 13:00 17,1 C 45 % 1017,5 hPa 0,0 l/m 2,2 km/h N 4,9 C 17,1 C 12,9 km/h
30.04.2017 14:00 17,3 C 40 % 1017,0 hPa 0,0 l/m 3,1 km/h N 3,4 C 17,3 C 11,7 km/h
30.04.2017 15:00 16,8 C 43 % 1016,6 hPa 0,0 l/m 2,8 km/h N 4,3 C 16,8 C 13,7 km/h
30.04.2017 16:00 15,8 C 44 % 1016,2 hPa 0,0 l/m 3,1 km/h N 3,5 C 15,8 C 10,5 km/h
30.04.2017 17:00 15,0 C 43 % 1015,9 hPa 0,0 l/m 2,8 km/h N 2,4 C 15,0 C 12,5 km/h
30.04.2017 18:00 14,7 C 45 % 1015,4 hPa 0,0 l/m 1,9 km/h N 2,8 C 14,7 C 10,1 km/h
30.04.2017 19:00 14,0 C 49 % 1015,1 hPa 0,0 l/m 1,3 km/h N 3,4 C 14,0 C 6,8 km/h
30.04.2017 20:00 12,6 C 55 % 1015,1 hPa 0,0 l/m 1,0 km/h N 3,9 C 12,6 C 7,2 km/h
30.04.2017 21:00 11,5 C 61 % 1015,0 hPa 0,0 l/m 0,2 km/h N 4,2 C 11,5 C 4,0 km/h
30.04.2017 22:00 10,9 C 65 % 1014,6 hPa 0,0 l/m 1,2 km/h N 4,6 C 10,9 C 6,8 km/h
30.04.2017 23:00 10,7 C 66 % 1014,3 hPa 0,0 l/m 1,5 km/h N 4,6 C 10,7 C 6,4 km/h
Min-Datum _ 24.04.17 30.04.17 25.04.17 - 24.04.17 - 24.04.17 29.04.17 24.04.17
_ Min-Zeit 06:15 14:15 19:00 - 02:30 - 04:30 02:00 03:15
Minimum _ 1,5 C 39 % 1003,4 hPa - 0,0 km/h - -2,7 C -0,1 C 0,0 km/h
Max-Datum _ 25.04.17 25.04.17 24.04.17 28.04.17 29.04.17 - 25.04.17 25.04.17 29.04.17
_ Max-Zeit 14:30 04:30 00:15 04:15 02:00 - 11:15 14:30 02:00
Maximum _ 21,9 C 83 % 1022,6 hPa 1,8 l/m 14,5 km/h
N
- 11,2 C 21,8 C 35,4 km/h
N
Durchschnitt _ 9,3 C 70 % 1012,5 hPa #6,0 l/m 2,9 km/h N 3,9 C 9,0 C 10,6 km/h